ΕΜΥ, Εθνική Μετεωρολογική Υπηρεσία - Δελτία Καιρού, Προγνώσεις

ΑΕΡΟΝΑΥΤΙΛΙΑ

GREEK AIRPORTS CODES

TAF LGPA 300700Z 3009/3018 36018KT 9999 FEW020 TEMPO 3009/3018 36018G28KT=

EUROPEAN AIRPORTS CODES

LFPO 302130Z AUTO 23003KT CAVOK 14/10 Q1017 NOSIG=